createdAt,value
2018-09-02T00:02:19.391Z,13.10
2018-09-02T00:04:46.845Z,13.10
2018-09-02T00:07:14.312Z,13.20
2018-09-02T00:09:41.795Z,13.20
2018-09-02T00:12:09.256Z,13.10
2018-09-02T00:14:36.818Z,13.00
2018-09-02T00:17:04.379Z,13.00
2018-09-02T00:19:31.844Z,12.90
2018-09-02T00:21:59.305Z,12.90
2018-09-02T00:24:26.866Z,12.90
2018-09-02T00:26:54.397Z,12.80
2018-09-02T00:29:21.849Z,12.90
2018-09-02T00:31:49.314Z,12.90
2018-09-02T00:34:16.837Z,12.80
2018-09-02T00:36:44.294Z,12.80
2018-09-02T00:39:11.752Z,12.80
2018-09-02T00:41:39.211Z,12.80
2018-09-02T00:44:06.760Z,12.80
2018-09-02T00:46:34.221Z,12.80
2018-09-02T00:49:01.746Z,12.80
2018-09-02T00:51:29.202Z,12.80
2018-09-02T00:56:25.467Z,12.70
2018-09-02T00:58:52.935Z,12.70
2018-09-02T01:01:20.397Z,12.80
2018-09-02T01:03:47.861Z,12.70
2018-09-02T01:06:15.312Z,12.70
2018-09-02T01:08:42.826Z,12.70
2018-09-02T01:11:10.375Z,12.60
2018-09-02T01:13:37.844Z,12.60
2018-09-02T01:16:05.314Z,12.60
2018-09-02T01:18:32.775Z,12.70
2018-09-02T01:21:00.227Z,12.70
2018-09-02T01:23:28.508Z,12.50
2018-09-02T01:25:55.964Z,12.50
2018-09-02T01:28:23.425Z,12.50
2018-09-02T01:30:50.895Z,12.50
2018-09-02T01:33:18.347Z,12.40
2018-09-02T01:35:45.834Z,12.40
2018-09-02T01:38:13.302Z,12.40
2018-09-02T01:40:40.756Z,12.40
2018-09-02T01:43:08.221Z,12.40
2018-09-02T01:45:35.674Z,12.40
2018-09-02T01:48:03.129Z,12.40
2018-09-02T01:50:30.583Z,12.40
2018-09-02T01:52:58.061Z,12.30
2018-09-02T01:55:27.039Z,12.30
2018-09-02T01:57:54.522Z,12.30
2018-09-02T02:00:22.081Z,12.30
2018-09-02T02:02:49.644Z,12.30
2018-09-02T02:05:17.214Z,12.30
2018-09-02T02:07:44.658Z,12.30
2018-09-02T02:10:12.129Z,12.20
2018-09-02T02:12:39.579Z,12.20
2018-09-02T02:15:07.117Z,12.20
2018-09-02T02:17:34.558Z,12.10
2018-09-02T02:20:02.802Z,12.00
2018-09-02T02:22:30.247Z,12.00
2018-09-02T02:24:57.701Z,12.00
2018-09-02T02:27:25.152Z,12.00
2018-09-02T02:29:52.613Z,12.00
2018-09-02T02:32:20.075Z,12.00
2018-09-02T02:34:47.532Z,11.90
2018-09-02T02:37:15.114Z,11.90
2018-09-02T02:39:42.597Z,11.90
2018-09-02T02:42:10.159Z,11.90
2018-09-02T02:44:37.616Z,11.80
2018-09-02T02:47:05.073Z,11.80
2018-09-02T02:49:32.533Z,11.90
2018-09-02T02:52:00.001Z,11.90
2018-09-02T02:54:27.465Z,11.80
2018-09-02T02:56:55.036Z,11.80
2018-09-02T02:59:22.490Z,11.80
2018-09-02T03:01:50.066Z,11.80
2018-09-02T03:04:17.633Z,11.90
2018-09-02T03:06:45.904Z,11.80
2018-09-02T03:09:13.365Z,11.80
2018-09-02T03:11:40.823Z,11.80
2018-09-02T03:14:08.275Z,11.80
2018-09-02T03:16:35.751Z,11.80
2018-09-02T03:19:03.209Z,11.80
2018-09-02T03:21:30.672Z,11.80
2018-09-02T03:23:58.132Z,11.70
2018-09-02T03:26:25.605Z,11.70
2018-09-02T03:28:53.163Z,11.60
2018-09-02T03:31:20.733Z,11.60
2018-09-02T03:33:48.182Z,11.50
2018-09-02T03:36:15.648Z,11.50
2018-09-02T03:38:43.119Z,11.50
2018-09-02T03:41:10.572Z,11.50
2018-09-02T03:43:38.145Z,11.50
2018-09-02T03:46:05.596Z,11.40
2018-09-02T03:48:33.062Z,11.40
2018-09-02T03:51:00.525Z,11.40
2018-09-02T03:53:29.128Z,11.30
2018-09-02T03:55:56.582Z,11.30
2018-09-02T03:58:24.037Z,11.30
2018-09-02T04:00:51.598Z,11.30
2018-09-02T04:03:19.054Z,11.30
2018-09-02T04:05:47.099Z,11.30
2018-09-02T04:08:14.539Z,11.30
2018-09-02T04:10:42.767Z,11.30
2018-09-02T04:13:10.236Z,11.30
2018-09-02T04:15:37.817Z,11.30
2018-09-02T04:18:05.330Z,11.30
2018-09-02T04:20:32.833Z,11.20
2018-09-02T04:23:00.403Z,11.20
2018-09-02T04:25:27.977Z,11.20
2018-09-02T04:27:55.436Z,11.10
2018-09-02T04:30:24.387Z,11.30
2018-09-02T04:32:51.847Z,11.30
2018-09-02T04:35:19.347Z,11.30
2018-09-02T04:37:46.908Z,11.40
2018-09-02T04:40:14.484Z,11.30
2018-09-02T04:42:42.031Z,11.30
2018-09-02T04:45:09.512Z,11.30
2018-09-02T04:47:36.944Z,11.20
2018-09-02T04:50:04.423Z,11.20
2018-09-02T04:52:31.888Z,11.20
2018-09-02T04:54:59.362Z,11.20
2018-09-02T04:57:26.825Z,11.20
2018-09-02T04:59:55.039Z,11.20
2018-09-02T05:02:22.507Z,11.20
2018-09-02T05:04:49.957Z,11.30
2018-09-02T05:07:18.599Z,11.10
2018-09-02T05:09:46.060Z,11.10
2018-09-02T05:12:13.640Z,11.10
2018-09-02T05:14:41.204Z,11.10
2018-09-02T05:17:08.762Z,11.10
2018-09-02T05:19:36.313Z,11.10
2018-09-02T05:22:03.778Z,11.10
2018-09-02T05:24:31.225Z,11.10
2018-09-02T05:26:58.688Z,11.20
2018-09-02T05:29:26.171Z,11.20
2018-09-02T05:31:53.643Z,11.20
2018-09-02T05:34:21.102Z,11.30
2018-09-02T05:36:48.617Z,11.30
2018-09-02T05:39:16.015Z,11.30
2018-09-02T05:41:43.588Z,11.30
2018-09-02T05:44:11.201Z,11.30
2018-09-02T05:46:38.588Z,11.30
2018-09-02T05:49:06.055Z,11.30
2018-09-02T05:51:33.494Z,11.50
2018-09-02T05:54:00.960Z,11.60
2018-09-02T05:56:28.406Z,11.70
2018-09-02T05:58:55.856Z,11.90
2018-09-02T06:01:24.194Z,12.10
2018-09-02T06:03:54.837Z,12.20
2018-09-02T06:06:22.300Z,12.20
2018-09-02T06:08:49.751Z,12.20
2018-09-02T06:11:17.314Z,12.40
2018-09-02T06:13:44.775Z,12.40
2018-09-02T06:16:12.248Z,12.40
2018-09-02T06:18:39.808Z,12.50
2018-09-02T06:21:08.500Z,12.90
2018-09-02T06:23:36.060Z,12.80
2018-09-02T06:26:03.618Z,12.90
2018-09-02T06:28:31.076Z,13.20
2018-09-02T06:30:58.527Z,13.20
2018-09-02T06:33:27.236Z,13.50
2018-09-02T06:35:54.791Z,13.50
2018-09-02T06:38:22.256Z,13.70
2018-09-02T06:40:49.706Z,13.80
2018-09-02T06:43:17.163Z,13.80
2018-09-02T06:45:44.707Z,13.80
2018-09-02T06:48:12.079Z,13.90
2018-09-02T06:50:39.536Z,14.10
2018-09-02T06:53:06.989Z,14.20
2018-09-02T06:55:34.444Z,14.20
2018-09-02T06:58:02.675Z,14.40
2018-09-02T07:00:30.130Z,14.40
2018-09-02T07:02:57.583Z,14.50
2018-09-02T07:05:25.044Z,14.70
2018-09-02T07:07:52.509Z,14.80
2018-09-02T07:10:19.978Z,14.80
2018-09-02T07:12:47.452Z,15.10
2018-09-02T07:15:14.925Z,15.40
2018-09-02T07:17:43.892Z,15.20
2018-09-02T07:20:11.434Z,15.20
2018-09-02T07:22:38.816Z,15.30
2018-09-02T07:25:06.301Z,15.50
2018-09-02T07:27:33.757Z,15.50
2018-09-02T07:30:01.314Z,15.70
2018-09-02T07:32:28.763Z,15.70
2018-09-02T07:34:56.236Z,15.60
2018-09-02T07:37:23.679Z,15.60
2018-09-02T07:39:51.144Z,15.60
2018-09-02T07:42:18.624Z,15.60
2018-09-02T07:44:46.080Z,15.70
2018-09-02T07:47:13.531Z,15.90
2018-09-02T07:49:40.981Z,15.90
2018-09-02T07:52:08.441Z,16.00
2018-09-02T07:54:35.967Z,16.00
2018-09-02T07:57:04.532Z,16.20
2018-09-02T07:59:32.093Z,16.20
2018-09-02T08:02:00.679Z,16.90
2018-09-02T08:04:28.233Z,16.90
2018-09-02T08:06:55.695Z,17.10
2018-09-02T08:09:23.159Z,16.70
2018-09-02T08:11:50.615Z,16.70
2018-09-02T08:14:18.839Z,16.90
2018-09-02T08:16:47.081Z,17.00
2018-09-02T08:19:14.539Z,17.00
2018-09-02T08:21:43.130Z,17.20
2018-09-02T08:24:10.600Z,17.20
2018-09-02T08:26:38.061Z,17.30
2018-09-02T08:29:05.506Z,17.30
2018-09-02T08:31:32.955Z,17.40
2018-09-02T08:34:00.423Z,17.70
2018-09-02T08:36:27.922Z,18.10
2018-09-02T08:38:55.502Z,18.00
2018-09-02T08:41:22.931Z,18.20
2018-09-02T08:43:50.455Z,18.10
2018-09-02T08:46:17.969Z,18.30
2018-09-02T08:48:45.516Z,18.20
2018-09-02T08:51:12.988Z,18.30
2018-09-02T08:53:40.431Z,18.10
2018-09-02T08:56:07.943Z,18.10
2018-09-02T08:58:35.373Z,18.40
2018-09-02T09:01:02.831Z,18.80
2018-09-02T09:03:30.301Z,18.80
2018-09-02T09:05:57.750Z,18.90
2018-09-02T09:08:26.729Z,19.10
2018-09-02T09:10:55.043Z,19.40
2018-09-02T09:13:23.272Z,19.10
2018-09-02T09:15:50.737Z,19.10
2018-09-02T09:18:18.195Z,19.00
2018-09-02T09:20:45.659Z,19.20
2018-09-02T09:23:13.113Z,19.50
2018-09-02T09:25:40.564Z,19.40
2018-09-02T09:30:36.888Z,19.60
2018-09-02T09:33:04.440Z,19.80
2018-09-02T09:35:31.899Z,19.80
2018-09-02T09:37:59.372Z,20.20
2018-09-02T09:40:26.831Z,20.00
2018-09-02T09:42:54.293Z,19.90
2018-09-02T09:45:21.851Z,20.00
2018-09-02T09:47:49.303Z,19.90
2018-09-02T09:50:16.771Z,19.90
2018-09-02T09:52:44.238Z,19.90
2018-09-02T09:55:11.705Z,20.20
2018-09-02T09:57:39.168Z,20.50
2018-09-02T10:00:06.635Z,20.20
2018-09-02T10:02:34.079Z,20.30
2018-09-02T10:05:01.653Z,20.50
2018-09-02T10:07:29.211Z,20.30
2018-09-02T10:09:56.809Z,20.00
2018-09-02T10:12:24.353Z,20.00
2018-09-02T10:14:51.924Z,20.50
2018-09-02T10:17:19.550Z,20.80
2018-09-02T10:19:46.938Z,20.90
2018-09-02T10:22:14.388Z,20.70
2018-09-02T10:24:41.864Z,20.40
2018-09-02T10:27:09.428Z,20.50
2018-09-02T10:29:36.992Z,20.60
2018-09-02T10:32:05.333Z,20.80
2018-09-02T10:34:32.831Z,20.80
2018-09-02T10:37:01.419Z,21.20
2018-09-02T10:39:30.013Z,21.40
2018-09-02T10:41:57.464Z,21.40
2018-09-02T10:44:26.156Z,21.70
2018-09-02T10:46:53.630Z,21.60
2018-09-02T10:49:21.085Z,21.60
2018-09-02T10:51:48.562Z,21.50
2018-09-02T10:54:16.783Z,21.40
2018-09-02T10:56:44.304Z,21.40
2018-09-02T10:59:11.756Z,21.50
2018-09-02T11:01:39.235Z,21.80
2018-09-02T11:04:06.692Z,21.40
2018-09-02T11:06:35.288Z,21.00
2018-09-02T11:09:03.889Z,20.80
2018-09-02T11:11:32.127Z,21.10
2018-09-02T11:13:59.833Z,21.20
2018-09-02T11:16:27.239Z,21.20
2018-09-02T11:18:54.703Z,21.20
2018-09-02T11:21:23.111Z,21.20
2018-09-02T11:23:50.667Z,21.20
2018-09-02T11:26:18.126Z,21.00
2018-09-02T11:28:45.587Z,21.00
2018-09-02T11:31:13.153Z,20.90
2018-09-02T11:33:40.726Z,21.30
2018-09-02T11:36:08.175Z,21.30
2018-09-02T11:38:35.640Z,21.20
2018-09-02T11:41:03.223Z,20.80
2018-09-02T11:46:00.251Z,20.80
2018-09-02T11:48:27.728Z,20.70
2018-09-02T11:50:55.217Z,21.10
2018-09-02T11:53:22.672Z,21.40
2018-09-02T11:55:50.227Z,21.40
2018-09-02T11:58:17.684Z,21.20
2018-09-02T12:00:45.133Z,21.40
2018-09-02T12:03:12.619Z,21.50
2018-09-02T12:05:40.088Z,21.30
2018-09-02T12:08:07.551Z,21.00
2018-09-02T12:10:35.007Z,20.80
2018-09-02T12:13:02.565Z,20.60
2018-09-02T12:15:30.028Z,20.60
2018-09-02T12:17:57.492Z,20.50
2018-09-02T12:20:25.066Z,20.60
2018-09-02T12:22:52.526Z,21.20
2018-09-02T12:25:19.995Z,21.40
2018-09-02T12:27:47.451Z,21.50
2018-09-02T12:30:15.013Z,21.70
2018-09-02T12:32:43.615Z,21.30
2018-09-02T12:35:11.079Z,21.30
2018-09-02T12:37:38.632Z,21.20
2018-09-02T12:40:06.099Z,21.00
2018-09-02T12:42:33.567Z,20.80
2018-09-02T12:45:01.025Z,20.70
2018-09-02T12:47:28.494Z,20.90
2018-09-02T12:49:57.165Z,22.10
2018-09-02T12:52:24.639Z,22.00
2018-09-02T12:54:52.112Z,22.10
2018-09-02T12:57:20.739Z,21.40
2018-09-02T12:59:48.196Z,21.40
2018-09-02T13:02:15.666Z,21.40
2018-09-02T13:04:43.163Z,21.40
2018-09-02T13:07:10.636Z,21.20
2018-09-02T13:09:38.267Z,21.00
2018-09-02T13:12:05.767Z,20.90
2018-09-02T13:14:33.330Z,20.70
2018-09-02T13:17:00.895Z,20.60
2018-09-02T13:19:28.457Z,20.60
2018-09-02T13:21:56.011Z,20.70
2018-09-02T13:24:23.574Z,20.80
2018-09-02T13:26:51.035Z,20.90
2018-09-02T13:29:18.487Z,21.10
2018-09-02T13:31:45.997Z,21.40
2018-09-02T13:34:13.421Z,21.30
2018-09-02T13:36:40.885Z,21.20
2018-09-02T13:39:08.335Z,21.10
2018-09-02T13:41:35.815Z,21.10
2018-09-02T13:44:03.296Z,21.10
2018-09-02T13:46:31.515Z,21.00
2018-09-02T13:48:58.970Z,21.00
2018-09-02T13:51:26.580Z,21.10
2018-09-02T13:53:53.949Z,21.40
2018-09-02T13:56:21.412Z,21.60
2018-09-02T13:58:48.880Z,21.50
2018-09-02T14:01:16.334Z,21.60
2018-09-02T14:03:43.797Z,21.70
2018-09-02T14:06:11.351Z,21.80
2018-09-02T14:08:38.920Z,21.70
2018-09-02T14:11:06.478Z,21.80
2018-09-02T14:13:34.045Z,22.10
2018-09-02T14:16:02.648Z,21.80
2018-09-02T14:18:31.261Z,21.60
2018-09-02T14:20:59.510Z,21.40
2018-09-02T14:23:27.067Z,21.30
2018-09-02T14:25:54.529Z,21.20
2018-09-02T14:28:22.123Z,21.10
2018-09-02T14:30:49.571Z,21.10
2018-09-02T14:33:17.020Z,20.90
2018-09-02T14:35:44.575Z,20.80
2018-09-02T14:38:12.048Z,20.90
2018-09-02T14:40:39.507Z,21.10
2018-09-02T14:43:06.968Z,21.30
2018-09-02T14:45:34.527Z,21.20
2018-09-02T14:48:01.986Z,21.40
2018-09-02T14:50:29.462Z,21.40
2018-09-02T14:52:57.024Z,21.50
2018-09-02T14:55:24.470Z,21.40
2018-09-02T14:57:51.929Z,21.60
2018-09-02T15:00:19.414Z,21.60
2018-09-02T15:02:46.863Z,21.70
2018-09-02T15:05:14.432Z,21.60
2018-09-02T15:07:41.996Z,21.60
2018-09-02T15:10:09.451Z,21.60
2018-09-02T15:12:37.023Z,21.60
2018-09-02T15:15:04.475Z,21.40
2018-09-02T15:17:31.939Z,21.20
2018-09-02T15:19:59.519Z,21.20
2018-09-02T15:22:27.072Z,21.20
2018-09-02T15:24:54.535Z,21.20
2018-09-02T15:27:22.161Z,21.20
2018-09-02T15:29:49.575Z,21.20
2018-09-02T15:32:17.854Z,21.20
2018-09-02T15:34:45.414Z,21.20
2018-09-02T15:37:12.891Z,21.30
2018-09-02T15:39:41.157Z,21.10
2018-09-02T15:42:08.623Z,21.20
2018-09-02T15:44:36.089Z,21.10
2018-09-02T15:47:03.641Z,21.00
2018-09-02T15:49:31.122Z,21.10
2018-09-02T15:51:58.576Z,21.20
2018-09-02T15:54:26.803Z,21.10
2018-09-02T15:56:54.272Z,21.10
2018-09-02T15:59:21.783Z,21.10
2018-09-02T16:01:49.339Z,21.10
2018-09-02T16:04:17.931Z,20.90
2018-09-02T16:06:45.397Z,20.80
2018-09-02T16:09:14.357Z,20.80
2018-09-02T16:11:41.847Z,20.80
2018-09-02T16:14:09.295Z,20.90
2018-09-02T16:16:36.868Z,20.90
2018-09-02T16:19:04.427Z,20.90
2018-09-02T16:21:33.039Z,20.70
2018-09-02T16:24:02.008Z,20.60
2018-09-02T16:26:29.479Z,20.60
2018-09-02T16:28:57.057Z,20.60
2018-09-02T16:31:24.513Z,20.80
2018-09-02T16:33:52.076Z,20.80
2018-09-02T16:36:19.635Z,20.80
2018-09-02T16:38:47.093Z,20.70
2018-09-02T16:41:14.582Z,20.80
2018-09-02T16:43:42.127Z,20.60
2018-09-02T16:46:09.599Z,20.60
2018-09-02T16:48:38.583Z,20.70
2018-09-02T16:51:06.038Z,20.70
2018-09-02T16:53:33.605Z,20.70
2018-09-02T16:56:01.179Z,20.50
2018-09-02T16:58:28.637Z,20.60
2018-09-02T17:00:56.125Z,20.60
2018-09-02T17:05:52.387Z,20.40
2018-09-02T17:08:20.635Z,20.50
2018-09-02T17:10:48.079Z,20.40
2018-09-02T17:13:15.544Z,20.30
2018-09-02T17:15:43.002Z,20.50
2018-09-02T17:18:10.544Z,20.50
2018-09-02T17:20:39.061Z,20.40
2018-09-02T17:23:06.523Z,20.40
2018-09-02T17:25:33.982Z,20.40
2018-09-02T17:28:01.469Z,20.20
2018-09-02T17:30:28.919Z,20.30
2018-09-02T17:32:56.385Z,20.20
2018-09-02T17:35:23.845Z,20.20
2018-09-02T17:37:51.312Z,20.10
2018-09-02T17:40:18.867Z,20.00
2018-09-02T17:42:46.423Z,20.00
2018-09-02T17:45:13.890Z,20.10
2018-09-02T17:47:41.357Z,20.10
2018-09-02T17:50:08.828Z,20.20
2018-09-02T17:52:36.289Z,19.90
2018-09-02T17:55:03.749Z,19.80
2018-09-02T17:57:31.215Z,19.80
2018-09-02T17:59:58.678Z,19.70
2018-09-02T18:02:26.948Z,19.70
2018-09-02T18:04:54.369Z,19.70
2018-09-02T18:07:21.835Z,19.60
2018-09-02T18:09:49.331Z,19.70
2018-09-02T18:12:16.883Z,19.60
2018-09-02T18:14:44.347Z,19.50
2018-09-02T18:17:11.807Z,19.40
2018-09-02T18:19:39.274Z,19.50
2018-09-02T18:22:06.728Z,19.30
2018-09-02T18:24:34.180Z,19.30
2018-09-02T18:27:01.655Z,19.30
2018-09-02T18:29:29.111Z,19.30
2018-09-02T18:31:56.584Z,19.30
2018-09-02T18:34:25.194Z,19.10
2018-09-02T18:36:52.651Z,19.10
2018-09-02T18:39:20.995Z,19.00
2018-09-02T18:41:49.521Z,18.90
2018-09-02T18:44:16.983Z,18.90
2018-09-02T18:46:45.219Z,18.80
2018-09-02T18:49:12.677Z,18.80
2018-09-02T18:51:40.139Z,20.20
2018-09-02T18:54:07.639Z,21.10
2018-09-02T18:56:36.213Z,19.20
2018-09-02T18:59:04.817Z,18.70
2018-09-02T19:01:32.379Z,18.70
2018-09-02T19:03:59.844Z,18.60
2018-09-02T19:06:28.441Z,18.30
2018-09-02T19:08:55.911Z,18.20
2018-09-02T19:11:24.132Z,18.00
2018-09-02T19:13:51.596Z,18.00
2018-09-02T19:16:19.133Z,18.00
2018-09-02T19:18:46.668Z,18.00
2018-09-02T19:21:14.133Z,17.90
2018-09-02T19:23:41.701Z,17.90
2018-09-02T19:26:09.870Z,17.70
2018-09-02T19:28:37.434Z,17.70
2018-09-02T19:31:04.996Z,17.60
2018-09-02T19:33:33.640Z,17.40
2018-09-02T19:36:01.091Z,17.40
2018-09-02T19:38:29.311Z,17.60
2018-09-02T19:40:56.870Z,17.60
2018-09-02T19:43:24.344Z,17.60
2018-09-02T19:45:51.907Z,17.60
2018-09-02T19:48:20.511Z,17.40
2018-09-02T19:50:47.992Z,17.40
2018-09-02T19:53:15.531Z,17.30
2018-09-02T19:55:42.992Z,17.30
2018-09-02T19:58:10.460Z,17.40
2018-09-02T20:00:37.930Z,17.20
2018-09-02T20:03:06.190Z,17.20
2018-09-02T20:05:33.665Z,17.20
2018-09-02T20:08:01.212Z,17.20
2018-09-02T20:10:28.676Z,17.30
2018-09-02T20:12:56.140Z,17.20
2018-09-02T20:15:23.717Z,17.40
2018-09-02T20:17:51.167Z,17.40
2018-09-02T20:20:18.631Z,17.30
2018-09-02T20:22:46.197Z,17.40
2018-09-02T20:25:13.662Z,17.50
2018-09-02T20:27:41.128Z,17.50
2018-09-02T20:30:08.641Z,17.50
2018-09-02T20:32:36.083Z,17.30
2018-09-02T20:35:04.317Z,17.50
2018-09-02T20:37:31.883Z,17.50
2018-09-02T20:39:59.339Z,17.50
2018-09-02T20:42:26.913Z,17.40
2018-09-02T20:44:54.377Z,17.40
2018-09-02T20:47:21.937Z,17.40
2018-09-02T20:49:49.418Z,17.30
2018-09-02T20:52:16.868Z,17.70
2018-09-02T20:54:44.326Z,17.60
2018-09-02T20:57:11.814Z,17.40
2018-09-02T20:59:39.272Z,17.30
2018-09-02T21:02:07.512Z,17.30
2018-09-02T21:04:34.971Z,17.30
2018-09-02T21:07:02.473Z,17.40
2018-09-02T21:09:30.697Z,17.20
2018-09-02T21:11:58.176Z,17.20
2018-09-02T21:14:25.636Z,17.20
2018-09-02T21:16:53.117Z,17.20
2018-09-02T21:19:20.575Z,17.30
2018-09-02T21:21:48.041Z,17.20
2018-09-02T21:24:15.628Z,17.30
2018-09-02T21:26:44.605Z,17.20
2018-09-02T21:29:12.179Z,17.20
2018-09-02T21:31:39.639Z,17.10
2018-09-02T21:34:07.096Z,17.10
2018-09-02T21:36:34.554Z,17.00
2018-09-02T21:39:02.017Z,17.10
2018-09-02T21:41:29.580Z,17.00
2018-09-02T21:43:57.049Z,16.80
2018-09-02T21:46:24.515Z,16.80
2018-09-02T21:48:51.984Z,16.80
2018-09-02T21:51:20.202Z,16.80
2018-09-02T21:53:47.706Z,16.80
2018-09-02T21:56:15.164Z,17.00
2018-09-02T21:58:42.623Z,16.80
2018-09-02T22:01:10.087Z,16.80
2018-09-02T22:03:37.657Z,16.80
2018-09-02T22:06:05.127Z,16.80
2018-09-02T22:08:32.594Z,16.70
2018-09-02T22:11:00.158Z,16.70
2018-09-02T22:13:27.723Z,16.60
2018-09-02T22:15:55.194Z,16.60
2018-09-02T22:18:23.556Z,16.50
2018-09-02T22:20:51.031Z,16.50
2018-09-02T22:23:18.483Z,16.50
2018-09-02T22:25:46.008Z,16.40
2018-09-02T22:28:14.174Z,16.30
2018-09-02T22:30:41.643Z,16.30
2018-09-02T22:33:09.098Z,16.30
2018-09-02T22:35:36.608Z,16.50
2018-09-02T22:38:04.081Z,16.60
2018-09-02T22:40:31.542Z,16.60
2018-09-02T22:42:59.099Z,16.50
2018-09-02T22:45:26.656Z,16.40
2018-09-02T22:47:54.117Z,16.50
2018-09-02T22:50:21.581Z,16.50
2018-09-02T22:52:49.045Z,16.60
2018-09-02T22:55:16.516Z,16.60
2018-09-02T22:57:43.982Z,16.50
2018-09-02T23:00:11.428Z,16.50
2018-09-02T23:02:38.889Z,16.40
2018-09-02T23:05:06.362Z,16.30
2018-09-02T23:07:33.924Z,16.40
2018-09-02T23:10:01.392Z,16.60
2018-09-02T23:12:28.854Z,16.60
2018-09-02T23:14:56.320Z,16.50
2018-09-02T23:17:23.872Z,16.40
2018-09-02T23:19:51.335Z,16.40
2018-09-02T23:22:18.807Z,16.30
2018-09-02T23:24:46.269Z,16.10
2018-09-02T23:27:13.736Z,16.10
2018-09-02T23:29:42.819Z,15.90
2018-09-02T23:32:10.288Z,16.00
2018-09-02T23:34:37.739Z,15.80
2018-09-02T23:37:05.311Z,15.90
2018-09-02T23:39:32.873Z,15.80
2018-09-02T23:42:00.325Z,16.10
2018-09-02T23:44:27.779Z,16.00
2018-09-02T23:46:55.238Z,16.00
2018-09-02T23:49:22.704Z,15.80
2018-09-02T23:51:50.157Z,15.80
2018-09-02T23:54:18.942Z,15.60
2018-09-02T23:56:47.547Z,15.60
2018-09-02T23:59:15.024Z,15.60
